Latest Weather Observations for Toowoomba

IDQ60801

Issued at 3:02 pm EST Monday 23 September 2019 (issued every 10 minutes, with the page automatically refreshed every 10 minutes)

About weather observations | Map of weather stations | Latest weather observations for QLD | Other Formats
Station Details ID: 041529 Name: TOOWOOMBA AIRPORT Lat: -27.54 Lon: 151.91 Height: 640.9 m
Data from the previous 72 hours. | See also: Recent months at Toowoomba
Date/Time
EST
Temp
°C
App
Temp
°C
Dew
Point
°C
Rel
Hum
%
Delta-T
°C
Wind Press
QNH
hPa
Press
MSL
hPa
Rain since
9am
mm
Dir  Spd
km/h
Gust
km/h
Spd
kts
Gust
kts
23/02:30pm 26.2 21.0 7.3 30 10.3 W 24 41 13 22 1022.5 1020.7 0.0
23/02:00pm 25.6 20.5 7.7 32 9.8 WSW 24 43 13 23 1022.8 1021.1 0.0
23/01:30pm 25.4 20.4 8.0 33 9.6 WNW 24 33 13 18 1023.1 1021.4 0.0
23/01:00pm 25.8 21.0 8.8 34 9.5 W 24 37 13 20 1023.3 1021.6 0.0
23/12:30pm 24.9 20.0 8.4 35 9.1 WNW 24 32 13 17 1024.1 1022.4 0.0
23/12:00pm 24.4 20.1 9.2 38 8.5 W 22 33 12 18 1024.5 1022.8 0.0
23/11:30am 23.9 19.3 9.5 40 8.1 WNW 24 37 13 20 1025.0 1023.3 0.0
23/11:00am 23.1 18.5 9.8 43 7.4 WNW 24 35 13 19 1025.5 1023.8 0.0
23/10:30am 22.1 17.6 9.9 46 6.8 WNW 24 35 13 19 1025.8 1024.1 0.0
23/10:00am 22.1 16.4 9.9 46 6.8 W 30 39 16 21 1026.2 1024.5 0.0
23/09:30am 20.8 16.3 10.0 50 6.0 WNW 24 35 13 19 1026.6 1024.9 0.0
23/09:00am 19.8 15.4 9.1 50 5.8 WNW 22 30 12 16 1027.2 1025.5 0.0
23/08:30am 18.5 13.8 7.9 50 5.6 WNW 22 30 12 16 1027.2 1025.5 0.0
23/08:00am 17.5 13.3 8.1 54 4.9 WNW 20 30 11 16 1027.0 1025.3 0.0
23/07:30am 16.7 13.0 9.4 62 3.9 WNW 19 24 10 13 1026.9 1025.2 0.0
23/07:00am 15.2 12.2 9.3 68 3.1 WNW 15 20 8 11 1026.7 1025.1 0.0
23/06:30am 14.4 11.5 9.6 73 2.6 W 15 20 8 11 1026.7 1025.1 0.0
23/06:00am 13.3 11.5 11.0 86 1.2 WSW 11 17 6 9 1026.6 1024.9 0.0
23/05:30am 13.0 11.5 10.7 86 1.2 WSW 9 11 5 6 1026.2 1024.5 0.0
23/05:00am 13.2 13.5 10.9 86 1.2 CALM 0 7 0 4 1025.9 1024.2 0.0
23/04:30am 13.1 12.3 11.0 87 1.1 SSW 6 13 3 7 1025.6 1023.9 0.0
23/04:00am 14.0 13.2 11.7 86 1.3 NNE 7 9 4 5 1025.1 1023.4 0.0
23/03:30am 12.9 11.8 11.8 93 0.6 E 9 11 5 6 1024.7 1023.0 0.0
23/03:00am 14.2 12.3 10.6 79 1.9 NE 11 15 6 8 1024.5 1022.8 0.0
23/02:30am 13.6 12.5 11.8 89 1.0 ENE 9 13 5 7 1024.8 1023.1 0.0
23/02:00am 14.5 13.0 11.8 84 1.5 NE 11 13 6 7 1025.1 1023.4 0.0
23/01:30am 14.6 13.2 12.1 85 1.4 ENE 11 15 6 8 1025.3 1023.5 0.0
23/01:00am 15.2 13.9 12.5 84 1.5 NE 11 15 6 8 1025.4 1023.6 0.0
23/12:30am 14.6 12.7 11.7 83 1.6 E 13 15 7 8 1025.8 1024.1 0.0
23/12:00am 16.1 14.3 12.1 77 2.2 NE 13 17 7 9 1026.0 1024.3 0.0
 
Date/Time
EST
Temp
°C
App
Temp
°C
Dew
Point
°C
Rel
Hum
%
Delta-T
°C
Wind Press
QNH
hPa
Press
MSL
hPa
Rain since
9am
mm
Dir  Spd
km/h
Gust
km/h
Spd
kts
Gust
kts
22/11:30pm 16.4 14.9 12.0 75 2.5 NE 11 15 6 8 1026.1 1024.4 0.0
22/11:00pm 16.8 15.0 12.1 74 2.6 NE 13 17 7 9 1026.1 1024.4 0.0
22/10:30pm 16.5 14.4 12.3 76 2.4 ENE 15 17 8 9 1026.1 1024.4 0.0
22/10:00pm 16.7 14.4 11.8 73 2.7 E 15 17 8 9 1026.1 1024.4 0.0
22/09:30pm 17.3 14.9 11.3 68 3.4 ENE 15 19 8 10 1026.1 1024.4 0.0
22/09:00pm 18.1 16.0 11.0 63 3.9 ENE 13 17 7 9 1026.2 1024.5 0.0
22/08:30pm 18.5 15.5 10.8 61 4.3 E 17 19 9 10 1026.1 1024.4 0.0
22/08:00pm 19.2 16.4 9.9 55 5.1 ESE 15 17 8 9 1026.0 1024.3 0.0
22/07:30pm 19.7 17.0 7.4 45 6.5 E 11 13 6 7 1025.8 1024.1 0.0
22/07:00pm 20.7 17.7 7.7 43 6.9 E 13 17 7 9 1025.6 1023.9 0.0
22/06:30pm 21.5 18.1 7.7 41 7.4 E 15 17 8 9 1025.4 1023.6 0.0
22/06:00pm 22.5 19.5 7.5 38 8.0 E 13 17 7 9 1025.1 1023.4 0.0
22/05:30pm 23.6 20.5 7.3 35 8.8 ENE 13 17 7 9 1024.9 1023.2 0.0
22/05:00pm 24.4 21.3 7.1 33 9.3 ENE 13 19 7 10 1024.7 1023.0 0.0
22/04:30pm 24.8 22.1 7.4 33 9.4 E 11 19 6 10 1024.6 1022.9 0.0
22/04:00pm 24.8 22.8 7.0 32 9.5 WSW 7 13 4 7 1024.5 1022.8 0.0
22/03:30pm 25.2 23.2 6.9 31 9.9 NNW 7 19 4 10 1024.6 1022.9 0.0
22/03:00pm 25.1 23.3 7.3 32 9.6 NE 6 13 3 7 1024.6 1022.9 0.0
22/02:30pm 25.2 23.4 7.3 32 9.7 NE 6 22 3 12 1024.7 1023.0 0.0
22/02:00pm 25.0 22.7 7.6 33 9.4 NE 9 17 5 9 1025.1 1023.4 0.0
22/01:30pm 24.4 22.3 8.4 36 8.8 N 9 17 5 9 1025.6 1023.9 0.0
22/01:00pm 24.0 21.4 7.6 35 8.8 NNW 11 20 6 11 1025.9 1024.2 0.0
22/12:30pm 24.4 21.3 8.8 37 8.7 NNE 15 28 8 15 1026.3 1024.6 0.0
22/12:00pm 23.6 20.1 8.8 39 8.1 N 17 26 9 14 1026.7 1025.1 0.0
22/11:30am 22.0 20.3 9.9 46 6.8 NW 9 19 5 10 1027.1 1025.4 0.0
22/11:00am 22.8 20.7 11.2 48 6.6 N 13 26 7 14 1027.2 1025.5 0.0
22/10:30am 21.2 18.1 10.4 50 6.1 NNE 17 26 9 14 1027.5 1025.8 0.0
22/10:00am 20.8 17.2 10.6 52 5.7 NNE 20 28 11 15 1027.7 1026.0 0.0
22/09:30am 19.9 15.9 10.3 54 5.3 NNE 22 28 12 15 1027.8 1026.1 0.0
22/09:00am 18.9 15.0 10.7 59 4.5 NNE 22 32 12 17 1027.9 1026.2 0.0
22/08:30am 17.7 14.1 11.9 69 3.3 NNE 22 32 12 17 1027.8 1026.1 0.0
22/08:00am 16.6 14.7 13.1 80 2.0 NE 15 20 8 11 1027.9 1026.2 0.0
22/07:30am 15.3 13.2 13.5 89 1.0 ENE 17 20 9 11 1027.7 1026.0 0.0
22/07:00am 14.6 12.4 13.3 92 0.7 NE 17 22 9 12 1027.4 1025.7 0.0
22/06:30am 13.7 12.3 13.5 99 0.1 NE 13 20 7 11 1027.2 1025.5 0.0
22/06:00am 13.0 11.4 12.8 99 0.1 NE 13 19 7 10 1026.9 1025.2 0.0
22/05:59am 12.9 11.3 12.7 99 0.1 NE 13 19 7 10 1026.9 1025.2 0.0
22/05:57am 12.9 11.3 12.7 99 0.1 NE 13 19 7 10 1026.7 1025.1 0.0
22/05:30am 12.7 11.0 12.5 99 0.1 ENE 13 17 7 9 1026.6 1024.9 0.0
22/05:00am 12.8 11.1 12.6 99 0.1 ENE 13 17 7 9 1026.4 1024.7 0.0
22/04:52am 12.9 10.9 12.7 99 0.1 ENE 15 19 8 10 1026.4 1024.7 0.0
22/04:50am 13.0 11.0 12.8 99 0.1 ENE 15 19 8 10 1026.4 1024.7 0.0
22/04:30am 13.0 11.0 12.8 99 0.1 ENE 15 20 8 11 1026.1 1024.4 0.0
22/04:00am 13.1 10.8 12.9 99 0.1 ENE 17 22 9 12 1025.8 1024.1 0.0
22/03:30am 13.3 10.1 13.0 98 0.2 ENE 22 26 12 14 1025.6 1023.9 0.0
22/03:00am 13.4 10.2 13.2 99 0.1 ENE 22 30 12 16 1025.6 1023.9 0.0
22/02:30am 13.2 10.0 13.0 99 0.1 ENE 22 28 12 15 1025.7 1024.0 0.0
22/02:00am 13.4 9.8 13.2 99 0.1 ENE 24 30 13 16 1025.8 1024.1 0.0
22/01:30am 13.4 9.5 13.2 99 0.1 E 26 33 14 18 1025.9 1024.2 0.0
22/01:00am 13.4 9.1 13.2 99 0.1 E 28 33 15 18 1025.9 1024.2 0.0
22/12:30am 13.6 9.7 13.4 99 0.1 E 26 32 14 17 1026.1 1024.4 0.0
22/12:00am 13.8 9.6 13.6 99 0.1 E 28 33 15 18 1026.2 1024.5 0.0
 
Date/Time
EST
Temp
°C
App
Temp
°C
Dew
Point
°C
Rel
Hum
%
Delta-T
°C
Wind Press
QNH
hPa
Press
MSL
hPa
Rain since
9am
mm
Dir  Spd
km/h
Gust
km/h
Spd
kts
Gust
kts
21/11:30pm 13.9 8.9 13.4 97 0.3 E 32 37 17 20 1026.2 1024.5 0.0
21/11:00pm 14.2 10.0 13.4 95 0.5 E 28 35 15 19 1026.3 1024.6 0.0
21/10:30pm 14.4 10.9 13.3 93 0.6 E 24 30 13 16 1026.3 1024.6 0.0
21/10:00pm 14.7 10.7 13.1 90 0.9 E 26 32 14 17 1026.2 1024.5 0.0
21/09:30pm 14.9 10.5 12.8 87 1.2 E 28 35 15 19 1026.2 1024.5 0.0
21/09:00pm 15.3 11.0 12.2 82 1.7 ESE 26 32 14 17 1026.0 1024.3 0.0
21/08:30pm 16.2 11.8 11.8 75 2.5 E 26 33 14 18 1025.8 1024.1 0.0
21/08:00pm 16.9 12.7 11.2 69 3.2 E 24 30 13 16 1025.7 1024.0 0.0
21/07:30pm 17.5 13.2 10.6 64 3.8 E 24 32 13 17 1025.4 1023.6 0.0
21/07:00pm 18.8 14.5 10.6 59 4.5 E 24 30 13 16 1025.0 1023.3 0.0
21/06:30pm 19.6 14.9 10.6 56 5.0 ENE 26 35 14 19 1024.7 1023.0 0.0
21/06:00pm 20.2 16.5 10.0 52 5.6 E 20 26 11 14 1024.3 1022.6 0.0
21/05:30pm 21.0 16.8 9.9 49 6.2 E 22 28 12 15 1024.0 1022.2 0.0
21/05:00pm 21.9 17.5 9.1 44 7.0 E 22 28 12 15 1024.0 1022.2 0.0
21/04:30pm 22.7 18.8 8.8 41 7.6 E 19 24 10 13 1023.7 1021.9 0.0
21/04:00pm 23.4 18.7 7.9 37 8.4 E 22 28 12 15 1023.4 1021.7 0.0
21/03:30pm 23.7 19.4 7.8 36 8.6 E 20 30 11 16 1023.7 1021.9 0.0
21/03:00pm 23.1 19.0 6.4 34 8.8 NNE 17 26 9 14 1024.0 1022.2 0.0
21/02:30pm 23.2 18.6 6.5 34 8.8 NE 20 26 11 14 1024.2 1022.5 0.0
21/02:00pm 23.6 19.3 6.8 34 8.9 N 19 28 10 15 1024.4 1022.7 0.0
21/01:30pm 22.9 18.9 6.6 35 8.6 NE 17 32 9 17 1024.6 1022.9 0.0
21/01:00pm 21.7 17.4 7.2 39 7.7 ENE 19 30 10 16 1025.0 1023.3 0.0
21/12:30pm 22.8 18.5 7.8 38 8.1 NE 20 28 11 15 1025.7 1024.0 0.0
21/12:00pm 21.2 17.2 8.1 43 7.0 NNE 19 26 10 14 1026.1 1024.4 0.0
21/11:30am 21.1 17.2 9.4 47 6.4 NE 20 32 11 17 1026.7 1025.1 0.0
21/11:00am 19.9 16.6 9.5 51 5.7 ENE 17 32 9 17 1027.2 1025.5 0.0
21/10:30am 20.8 17.8 12.5 59 4.8 ENE 20 33 11 18 1027.5 1025.8 0.0
21/10:00am 18.6 15.7 12.4 67 3.5 ENE 19 28 10 15 1027.8 1026.1 0.0
21/09:30am 19.3 16.4 12.8 66 3.8 ENE 20 28 11 15 1028.0 1026.3 0.0
21/09:17am 18.1 14.6 12.3 69 3.3 ENE 22 32 12 17 1028.1 1026.5 0.0
21/09:00am 17.3 14.3 12.6 74 2.7 ENE 20 33 11 18 1028.2 1026.6 0.0
21/08:30am 16.7 14.0 13.4 81 1.9 NE 20 28 11 15 1028.3 1026.7 0.0
21/08:00am 15.3 12.7 13.7 90 0.9 NE 20 32 11 17 1028.1 1026.5 0.0
21/07:50am 15.0 12.6 13.7 92 0.8 NE 19 28 10 15 1028.0 1026.3 0.0
21/07:30am 14.7 11.8 13.9 95 0.5 ENE 22 32 12 17 1027.8 1026.1 0.0
21/07:27am 14.8 12.4 14.3 97 0.3 ENE 20 28 11 15 1027.8 1026.1 0.0
21/07:02am 14.5 12.0 14.0 97 0.3 ENE 20 28 11 15 1027.7 1026.0 0.0
21/07:00am 14.8 12.4 14.3 97 0.3 ENE 20 28 11 15 1027.7 1026.0 0.0
21/06:40am 14.2 11.3 14.0 99 0.1 E 22 32 12 17 1027.4 1025.7 0.0
21/06:38am 14.2 11.3 14.0 99 0.1 E 22 32 12 17 1027.4 1025.7 0.0
21/06:30am 14.0 11.1 14.0 100 0.0 ENE 22 30 12 16 1027.3 1025.6 0.0
21/06:17am 13.8 10.4 13.6 99 0.1 E 24 33 13 18 1027.1 1025.4 0.0
21/06:04am 13.8 10.8 13.6 99 0.1 E 22 30 12 16 1027.1 1025.4 0.0
21/06:02am 13.9 10.5 13.7 99 0.1 E 24 32 13 17 1027.0 1025.3 0.0
21/06:00am 13.9 10.5 13.7 99 0.1 E 24 32 13 17 1026.9 1025.2 0.0
21/05:46am 13.9 10.5 13.7 99 0.1 E 24 33 13 18 1026.9 1025.2 0.0
21/05:30am 13.8 10.4 13.6 99 0.1 E 24 33 13 18 1026.7 1025.1 0.0
21/05:05am 13.7 10.6 13.5 99 0.1 E 22 32 12 17 1026.5 1024.8 0.0
21/05:00am 13.8 11.1 13.6 99 0.1 E 20 30 11 16 1026.5 1024.8 0.0
21/04:42am 13.8 11.3 13.6 99 0.1 E 19 28 10 15 1026.4 1024.7 0.0
21/04:30am 13.8 10.8 13.6 99 0.1 E 22 30 12 16 1026.3 1024.6 0.0
21/04:00am 13.7 10.6 13.4 98 0.2 E 22 30 12 16 1026.0 1024.3 0.0
21/03:30am 13.8 10.8 13.6 99 0.1 E 22 37 12 20 1025.8 1024.1 0.0
21/03:06am 13.9 10.9 13.7 99 0.1 E 22 32 12 17 1025.9 1024.2 0.0
21/03:00am 13.9 10.9 13.7 99 0.1 E 22 32 12 17 1025.8 1024.1 0.0
21/02:30am 14.1 10.4 13.9 99 0.1 E 26 35 14 19 1025.8 1024.1 0.0
21/02:18am 14.1 10.4 13.9 99 0.1 E 26 35 14 19 1025.8 1024.1 0.0
21/02:00am 14.1 9.6 13.9 99 0.1 E 30 41 16 22 1025.9 1024.2 0.0
21/01:56am 14.1 10.0 13.9 99 0.1 E 28 37 15 20 1025.8 1024.1 0.0
21/01:30am 14.1 10.4 13.9 99 0.1 E 26 37 14 20 1025.9 1024.2 0.0
21/01:26am 14.1 10.8 13.9 99 0.1 E 24 37 13 20 1025.9 1024.2 0.0
21/01:08am 14.3 10.7 14.1 99 0.1 E 26 37 14 20 1026.0 1024.3 0.0
21/01:00am 14.3 11.0 14.0 98 0.2 E 24 33 13 18 1026.0 1024.3 0.0
21/12:40am 14.3 9.8 13.8 97 0.3 E 30 43 16 23 1026.2 1024.5 0.0
21/12:30am 14.2 10.1 13.7 97 0.3 E 28 37 15 20 1026.1 1024.4 0.0
21/12:00am 14.3 9.5 14.1 99 0.1 E 32 43 17 23 1026.3 1024.6 0.0
 
Date/Time
EST
Temp
°C
App
Temp
°C
Dew
Point
°C
Rel
Hum
%
Delta-T
°C
Wind Press
QNH
hPa
Press
MSL
hPa
Rain since
9am
mm
Dir  Spd
km/h
Gust
km/h
Spd
kts
Gust
kts
20/11:35pm 14.4 9.5 13.8 96 0.3 E 32 41 17 22 1026.4 1024.7 0.0
20/11:30pm 14.4 9.6 14.1 98 0.2 E 32 41 17 22 1026.4 1024.7 0.0
20/11:00pm 14.4 10.0 14.1 98 0.2 E 30 41 16 22 1026.4 1024.7 0.0
20/10:30pm 14.5 9.7 13.9 96 0.3 E 32 43 17 23 1026.4 1024.7 0.0
20/10:00pm 14.8 9.3 13.7 93 0.6 E 35 43 19 23 1026.3 1024.6 0.0
20/09:30pm 14.8 9.0 12.8 88 1.1 E 35 46 19 25 1026.3 1024.6 0.0
20/09:13pm 15.0 9.1 12.3 84 1.5 E 35 44 19 24 1026.3 1024.6 0.0
20/09:00pm 15.1 9.1 12.1 82 1.7 E 35 44 19 24 1026.3 1024.6 0.0
20/08:37pm 15.3 9.9 12.1 81 1.8 E 32 50 17 27 1026.2 1024.5 0.0
20/08:30pm 15.2 9.7 12.0 81 1.8 E 32 41 17 22 1026.2 1024.5 0.0
20/08:00pm 15.7 10.3 12.1 79 2.0 E 32 43 17 23 1026.4 1024.7 0.0
20/07:30pm 16.3 11.9 11.7 74 2.6 E 26 35 14 19 1026.2 1024.5 0.0
20/07:00pm 17.1 12.2 11.2 68 3.3 E 28 39 15 21 1025.8 1024.1 0.0
20/06:30pm 17.8 13.2 11.1 65 3.7 E 26 35 14 19 1025.3 1023.5 0.0
20/06:00pm 18.8 12.9 10.6 59 4.5 E 32 41 17 22 1024.8 1023.1 0.0
20/05:30pm 20.1 15.4 9.1 49 6.0 E 24 35 13 19 1024.1 1022.4 0.0
20/05:00pm 21.1 15.8 8.4 44 6.8 ESE 26 33 14 18 1023.8 1022.0 0.0
20/04:30pm 22.4 18.2 8.1 40 7.8 E 20 30 11 16 1023.9 1022.1 0.0
20/04:00pm 22.4 17.9 7.0 37 8.2 E 20 28 11 15 1023.4 1021.7 0.0
20/03:30pm 22.2 16.4 6.4 36 8.3 E 26 33 14 18 1023.7 1021.9 0.0

Other formats

Comma delimited format used in spreadsheet applications
http://www.bom.gov.au/fwo/IDQ60801/IDQ60801.95551.axf

JavaScript Object Notation format (JSON) in row-major order
http://www.bom.gov.au/fwo/IDQ60801/IDQ60801.95551.json

Data quality

Most of these data are generated automatically and are frequently updated. Quality checks on data are not normally performed. It is possible for incorrect values to appear. Refer to information at About Latest Weather Observations and please check the disclaimer before using these data.